Terminal Aerodrome Forecast
Issued by NWS

Home | Current Version | Previous Version | Graphics & Text | Print | Product List | Glossary On
Versions: 1 2 3 4 5 6 7 8 9 10 11 12 13
940
FTUS42 KMHX 241147
TAFPGV
TAF
KPGV 241147Z 2412/2512 19006KT P6SM FEW050
     FM251000 VRB02KT 5SM BR SCT250
      AMD LTD TO CLD VIS AND WIND=

USA.gov is the U.S. government's official web portal to all federal, state and local government web resources and services.